sensor_id;sensor_type;location;lat;lon;timestamp;pressure;altitude;pressure_sealevel;temperature;humidity
54262;BME280;40174;52.364;6.452;2023-03-19T00:01:32;100840.69;;;9.10;100.00
54262;BME280;40174;52.364;6.452;2023-03-19T00:03:59;100838.88;;;9.11;100.00
54262;BME280;40174;52.364;6.452;2023-03-19T00:06:25;100842.13;;;9.14;100.00
54262;BME280;40174;52.364;6.452;2023-03-19T00:08:52;100839.47;;;9.14;100.00
54262;BME280;40174;52.364;6.452;2023-03-19T00:11:19;100842.84;;;9.16;100.00
54262;BME280;40174;52.364;6.452;2023-03-19T00:13:45;100834.09;;;9.16;100.00
54262;BME280;40174;52.364;6.452;2023-03-19T00:16:13;100841.06;;;9.17;100.00
54262;BME280;40174;52.364;6.452;2023-03-19T00:18:40;100840.09;;;9.18;100.00
54262;BME280;40174;52.364;6.452;2023-03-19T00:21:07;100846.00;;;9.22;100.00
54262;BME280;40174;52.364;6.452;2023-03-19T00:23:34;100840.72;;;9.22;100.00
54262;BME280;40174;52.364;6.452;2023-03-19T00:26:02;100844.09;;;9.24;100.00
54262;BME280;40174;52.364;6.452;2023-03-19T00:28:29;100845.66;;;9.26;100.00
54262;BME280;40174;52.364;6.452;2023-03-19T00:30:55;100841.31;;;9.25;100.00
54262;BME280;40174;52.364;6.452;2023-03-19T00:33:23;100849.97;;;9.27;100.00
54262;BME280;40174;52.364;6.452;2023-03-19T00:35:51;100839.41;;;9.27;100.00
54262;BME280;40174;52.364;6.452;2023-03-19T00:38:18;100841.13;;;9.28;100.00
54262;BME280;40174;52.364;6.452;2023-03-19T00:40:44;100845.41;;;9.29;100.00
54262;BME280;40174;52.364;6.452;2023-03-19T00:43:12;100838.47;;;9.28;100.00
54262;BME280;40174;52.364;6.452;2023-03-19T00:45:39;100845.19;;;9.32;100.00
54262;BME280;40174;52.364;6.452;2023-03-19T00:48:07;100855.63;;;9.34;100.00
54262;BME280;40174;52.364;6.452;2023-03-19T00:50:34;100856.47;;;9.34;100.00
54262;BME280;40174;52.364;6.452;2023-03-19T00:53:01;100856.34;;;9.36;100.00
54262;BME280;40174;52.364;6.452;2023-03-19T00:55:28;100858.03;;;9.37;100.00
54262;BME280;40174;52.364;6.452;2023-03-19T00:57:54;100856.34;;;9.36;100.00
54262;BME280;40174;52.364;6.452;2023-03-19T01:00:21;100856.00;;;9.41;100.00
54262;BME280;40174;52.364;6.452;2023-03-19T01:02:51;100852.19;;;9.45;100.00
54262;BME280;40174;52.364;6.452;2023-03-19T01:05:19;100847.16;;;9.42;100.00
54262;BME280;40174;52.364;6.452;2023-03-19T01:07:47;100854.09;;;9.43;100.00
54262;BME280;40174;52.364;6.452;2023-03-19T01:10:16;100850.38;;;9.45;100.00
54262;BME280;40174;52.364;6.452;2023-03-19T01:12:42;100850.38;;;9.45;100.00
54262;BME280;40174;52.364;6.452;2023-03-19T01:15:11;100866.09;;;9.47;100.00
54262;BME280;40174;52.364;6.452;2023-03-19T01:17:37;100860.84;;;9.47;100.00
54262;BME280;40174;52.364;6.452;2023-03-19T01:20:05;100855.56;;;9.47;100.00
54262;BME280;40174;52.364;6.452;2023-03-19T01:22:37;100861.78;;;9.46;100.00
54262;BME280;40174;52.364;6.452;2023-03-19T01:25:08;100850.16;;;9.48;100.00
54262;BME280;40174;52.364;6.452;2023-03-19T01:27:36;100847.50;;;9.48;100.00
54262;BME280;40174;52.364;6.452;2023-03-19T01:30:04;100845.00;;;9.47;100.00
54262;BME280;40174;52.364;6.452;2023-03-19T01:32:51;100836.38;;;9.45;100.00
54262;BME280;40174;52.364;6.452;2023-03-19T01:35:36;100840.91;;;9.43;100.00
54262;BME280;40174;52.364;6.452;2023-03-19T01:38:04;100838.16;;;9.44;100.00
54262;BME280;40174;52.364;6.452;2023-03-19T01:40:32;100842.56;;;9.44;100.00
54262;BME280;40174;52.364;6.452;2023-03-19T01:43:12;100848.00;;;9.42;100.00
54262;BME280;40174;52.364;6.452;2023-03-19T01:45:49;100837.78;;;9.38;100.00
54262;BME280;40174;52.364;6.452;2023-03-19T01:48:41;100836.22;;;9.35;100.00
54262;BME280;40174;52.364;6.452;2023-03-19T01:51:15;100828.31;;;9.35;100.00
54262;BME280;40174;52.364;6.452;2023-03-19T01:53:55;100840.03;;;9.31;100.00
54262;BME280;40174;52.364;6.452;2023-03-19T01:56:38;100830.44;;;9.30;100.00
54262;BME280;40174;52.364;6.452;2023-03-19T01:59:17;100827.19;;;9.26;100.00
54262;BME280;40174;52.364;6.452;2023-03-19T02:02:16;100826.47;;;9.24;100.00
54262;BME280;40174;52.364;6.452;2023-03-19T02:04:48;100827.66;;;9.20;100.00
54262;BME280;40174;52.364;6.452;2023-03-19T02:07:16;100831.56;;;9.14;100.00
54262;BME280;40174;52.364;6.452;2023-03-19T02:09:44;100837.19;;;9.10;100.00
54262;BME280;40174;52.364;6.452;2023-03-19T02:12:12;100829.50;;;9.07;100.00
54262;BME280;40174;52.364;6.452;2023-03-19T02:14:40;100829.75;;;9.04;100.00
54262;BME280;40174;52.364;6.452;2023-03-19T02:17:06;100830.59;;;9.04;100.00
54262;BME280;40174;52.364;6.452;2023-03-19T02:19:38;100830.69;;;9.03;100.00
54262;BME280;40174;52.364;6.452;2023-03-19T02:22:07;100824.69;;;9.01;100.00
54262;BME280;40174;52.364;6.452;2023-03-19T02:24:40;100825.03;;;8.96;100.00
54262;BME280;40174;52.364;6.452;2023-03-19T02:27:14;100826.00;;;8.95;100.00
54262;BME280;40174;52.364;6.452;2023-03-19T02:29:45;100839.28;;;8.93;100.00
54262;BME280;40174;52.364;6.452;2023-03-19T02:32:12;100835.06;;;8.91;100.00
54262;BME280;40174;52.364;6.452;2023-03-19T02:34:40;100833.38;;;8.90;100.00
54262;BME280;40174;52.364;6.452;2023-03-19T02:41:11;100834.34;;;8.89;100.00
54262;BME280;40174;52.364;6.452;2023-03-19T02:43:40;100836.00;;;8.90;100.00
54262;BME280;40174;52.364;6.452;2023-03-19T02:46:09;100837.59;;;8.92;100.00
54262;BME280;40174;52.364;6.452;2023-03-19T02:48:39;100838.53;;;8.91;100.00
54262;BME280;40174;52.364;6.452;2023-03-19T02:51:06;100844.66;;;8.92;100.00
54262;BME280;40174;52.364;6.452;2023-03-19T02:53:33;100838.53;;;8.91;100.00
54262;BME280;40174;52.364;6.452;2023-03-19T02:56:00;100835.06;;;8.91;100.00
54262;BME280;40174;52.364;6.452;2023-03-19T02:58:27;100848.25;;;8.91;100.00
54262;BME280;40174;52.364;6.452;2023-03-19T03:00:55;100855.09;;;8.93;100.00
54262;BME280;40174;52.364;6.452;2023-03-19T03:03:21;100849.91;;;8.92;100.00
54262;BME280;40174;52.364;6.452;2023-03-19T03:05:48;100833.03;;;8.94;100.00
54262;BME280;40174;52.364;6.452;2023-03-19T03:08:15;100836.53;;;8.95;100.00
54262;BME280;40174;52.364;6.452;2023-03-19T03:10:43;100846.13;;;8.96;100.00
54262;BME280;40174;52.364;6.452;2023-03-19T03:13:10;100846.13;;;8.96;100.00
54262;BME280;40174;52.364;6.452;2023-03-19T03:15:38;100848.66;;;8.98;100.00
54262;BME280;40174;52.364;6.452;2023-03-19T03:18:06;100852.84;;;9.00;100.00
54262;BME280;40174;52.364;6.452;2023-03-19T03:20:33;100853.81;;;8.99;100.00
54262;BME280;40174;52.364;6.452;2023-03-19T03:22:59;100858.97;;;9.01;100.00
54262;BME280;40174;52.364;6.452;2023-03-19T03:25:27;100856.47;;;8.99;100.00
54262;BME280;40174;52.364;6.452;2023-03-19T03:27:54;100863.50;;;8.99;100.00
54262;BME280;40174;52.364;6.452;2023-03-19T03:30:21;100868.78;;;8.99;100.00
54262;BME280;40174;52.364;6.452;2023-03-19T03:32:48;100865.19;;;9.00;100.00
54262;BME280;40174;52.364;6.452;2023-03-19T03:35:16;100867.00;;;8.99;100.00
54262;BME280;40174;52.364;6.452;2023-03-19T03:37:46;100874.91;;;8.99;100.00
54262;BME280;40174;52.364;6.452;2023-03-19T03:40:13;100875.75;;;9.00;100.00
54262;BME280;40174;52.364;6.452;2023-03-19T03:42:40;100871.31;;;9.00;100.00
54262;BME280;40174;52.364;6.452;2023-03-19T03:45:09;100878.25;;;9.01;100.00
54262;BME280;40174;52.364;6.452;2023-03-19T03:47:38;100873.84;;;9.02;100.00
54262;BME280;40174;52.364;6.452;2023-03-19T03:50:06;100862.44;;;9.01;100.00
54262;BME280;40174;52.364;6.452;2023-03-19T03:52:36;100874.56;;;9.04;100.00
54262;BME280;40174;52.364;6.452;2023-03-19T03:55:04;100869.41;;;9.02;100.00
54262;BME280;40174;52.364;6.452;2023-03-19T03:57:31;100883.53;;;9.01;100.00
54262;BME280;40174;52.364;6.452;2023-03-19T03:59:58;100881.63;;;9.03;100.00
54262;BME280;40174;52.364;6.452;2023-03-19T04:02:25;100886.88;;;9.03;100.00
54262;BME280;40174;52.364;6.452;2023-03-19T04:04:52;100878.97;;;9.03;100.00
54262;BME280;40174;52.364;6.452;2023-03-19T04:07:20;100881.63;;;9.03;100.00
54262;BME280;40174;52.364;6.452;2023-03-19T04:09:55;100881.63;;;9.03;100.00
54262;BME280;40174;52.364;6.452;2023-03-19T04:12:23;100879.22;;;9.00;100.00
54262;BME280;40174;52.364;6.452;2023-03-19T04:14:49;100878.97;;;9.03;100.00
54262;BME280;40174;52.364;6.452;2023-03-19T04:17:16;100879.84;;;9.04;100.00
54262;BME280;40174;52.364;6.452;2023-03-19T04:19:43;100885.94;;;9.04;100.00
54262;BME280;40174;52.364;6.452;2023-03-19T04:22:10;100884.25;;;9.03;100.00
54262;BME280;40174;52.364;6.452;2023-03-19T04:24:37;100887.84;;;9.02;100.00
54262;BME280;40174;52.364;6.452;2023-03-19T04:27:05;100880.69;;;9.04;100.00
54262;BME280;40174;52.364;6.452;2023-03-19T04:29:33;100878.03;;;9.04;100.00
54262;BME280;40174;52.364;6.452;2023-03-19T04:32:00;100879.59;;;9.07;100.00
54262;BME280;40174;52.364;6.452;2023-03-19T04:34:27;100879.59;;;9.07;100.00
54262;BME280;40174;52.364;6.452;2023-03-19T04:36:54;100886.56;;;9.08;100.00
54262;BME280;40174;52.364;6.452;2023-03-19T04:39:21;100884.03;;;9.06;100.00
54262;BME280;40174;52.364;6.452;2023-03-19T04:41:50;100881.41;;;9.06;100.00
54262;BME280;40174;52.364;6.452;2023-03-19T04:44:30;100876.97;;;9.07;100.00
54262;BME280;40174;52.364;6.452;2023-03-19T04:46:59;100887.53;;;9.07;100.00
54262;BME280;40174;52.364;6.452;2023-03-19T04:49:33;100889.31;;;9.06;100.00
54262;BME280;40174;52.364;6.452;2023-03-19T04:52:00;100885.63;;;9.09;100.00
54262;BME280;40174;52.364;6.452;2023-03-19T04:54:27;100883.81;;;9.09;100.00
54262;BME280;40174;52.364;6.452;2023-03-19T04:56:55;100889.09;;;9.09;100.00
54262;BME280;40174;52.364;6.452;2023-03-19T04:59:24;100886.56;;;9.08;100.00
54262;BME280;40174;52.364;6.452;2023-03-19T05:01:52;100884.97;;;9.05;100.00
54262;BME280;40174;52.364;6.452;2023-03-19T05:04:21;100888.59;;;9.04;100.00
54262;BME280;40174;52.364;6.452;2023-03-19T05:06:53;100897.34;;;9.05;100.00
54262;BME280;40174;52.364;6.452;2023-03-19T05:09:21;100889.53;;;9.03;100.00
54262;BME280;40174;52.364;6.452;2023-03-19T05:11:48;100904.50;;;9.03;100.00
54262;BME280;40174;52.364;6.452;2023-03-19T05:14:18;100902.09;;;9.00;100.00
54262;BME280;40174;52.364;6.452;2023-03-19T05:17:09;100904.84;;;8.98;100.00
54262;BME280;40174;52.364;6.452;2023-03-19T05:19:47;100904.09;;;8.96;100.00
54262;BME280;40174;52.364;6.452;2023-03-19T05:22:15;100902.53;;;8.93;100.00
54262;BME280;40174;52.364;6.452;2023-03-19T05:24:42;100899.91;;;8.93;100.00
54262;BME280;40174;52.364;6.452;2023-03-19T05:27:10;100906.97;;;8.93;100.00
54262;BME280;40174;52.364;6.452;2023-03-19T05:29:45;100909.63;;;8.93;100.00
54262;BME280;40174;52.364;6.452;2023-03-19T05:32:23;100903.59;;;8.91;100.00
54262;BME280;40174;52.364;6.452;2023-03-19T05:34:50;100912.34;;;8.91;100.00
54262;BME280;40174;52.364;6.452;2023-03-19T05:37:18;100909.81;;;8.90;100.00
54262;BME280;40174;52.364;6.452;2023-03-19T05:39:52;100909.22;;;8.86;100.00
54262;BME280;40174;52.364;6.452;2023-03-19T05:42:21;100922.50;;;8.85;100.00
54262;BME280;40174;52.364;6.452;2023-03-19T05:44:48;100917.22;;;8.85;100.00
54262;BME280;40174;52.364;6.452;2023-03-19T05:47:20;100920.91;;;8.82;100.00
54262;BME280;40174;52.364;6.452;2023-03-19T05:49:52;100922.72;;;8.82;100.00
54262;BME280;40174;52.364;6.452;2023-03-19T05:52:19;100921.03;;;8.81;100.00
54262;BME280;40174;52.364;6.452;2023-03-19T05:54:47;100934.94;;;8.83;100.00
54262;BME280;40174;52.364;6.452;2023-03-19T05:57:33;100921.88;;;8.81;100.00
54262;BME280;40174;52.364;6.452;2023-03-19T06:00:11;100923.66;;;8.81;100.00
54262;BME280;40174;52.364;6.452;2023-03-19T06:02:38;100928.09;;;8.80;100.00
54262;BME280;40174;52.364;6.452;2023-03-19T06:05:29;100921.03;;;8.81;100.00
54262;BME280;40174;52.364;6.452;2023-03-19T06:08:19;100932.72;;;8.77;100.00
54262;BME280;40174;52.364;6.452;2023-03-19T06:11:04;100931.69;;;8.79;100.00
54262;BME280;40174;52.364;6.452;2023-03-19T06:13:32;100927.34;;;8.78;100.00
54262;BME280;40174;52.364;6.452;2023-03-19T06:16:04;100933.59;;;8.77;100.00
54262;BME280;40174;52.364;6.452;2023-03-19T06:18:37;100938.72;;;8.79;100.00
54262;BME280;40174;52.364;6.452;2023-03-19T06:21:09;100938.00;;;8.77;100.00
54262;BME280;40174;52.364;6.452;2023-03-19T06:23:36;100942.34;;;8.78;100.00
54262;BME280;40174;52.364;6.452;2023-03-19T06:26:05;100934.66;;;8.74;100.00
54262;BME280;40174;52.364;6.452;2023-03-19T06:28:39;100938.22;;;8.73;100.00
54262;BME280;40174;52.364;6.452;2023-03-19T06:31:07;100947.94;;;8.73;100.00
54262;BME280;40174;52.364;6.452;2023-03-19T06:33:56;100954.28;;;8.70;100.00
54262;BME280;40174;52.364;6.452;2023-03-19T06:36:30;100949.84;;;8.71;100.00
54262;BME280;40174;52.364;6.452;2023-03-19T06:38:57;100950.56;;;8.73;100.00
54262;BME280;40174;52.364;6.452;2023-03-19T06:41:24;100960.03;;;8.76;100.00
54262;BME280;40174;52.364;6.452;2023-03-19T06:43:55;100960.03;;;8.76;100.00
54262;BME280;40174;52.364;6.452;2023-03-19T06:46:21;100958.97;;;8.78;100.00
54262;BME280;40174;52.364;6.452;2023-03-19T06:48:48;100959.81;;;8.79;100.00
54262;BME280;40174;52.364;6.452;2023-03-19T06:51:15;100958.88;;;8.80;100.00
54262;BME280;40174;52.364;6.452;2023-03-19T06:53:43;100965.50;;;8.85;100.00
54262;BME280;40174;52.364;6.452;2023-03-19T06:56:09;100967.28;;;8.85;100.00
54262;BME280;40174;52.364;6.452;2023-03-19T06:58:36;100966.22;;;8.87;100.00
54262;BME280;40174;52.364;6.452;2023-03-19T07:01:03;100977.41;;;8.91;100.00
54262;BME280;40174;52.364;6.452;2023-03-19T07:03:29;100978.88;;;8.95;100.00
54262;BME280;40174;52.364;6.452;2023-03-19T07:05:56;100978.56;;;9.00;100.00
54262;BME280;40174;52.364;6.452;2023-03-19T07:08:23;100988.03;;;9.02;100.00
54262;BME280;40174;52.364;6.452;2023-03-19T07:10:55;100992.34;;;9.03;100.00
54262;BME280;40174;52.364;6.452;2023-03-19T07:13:22;100988.44;;;9.09;100.00
54262;BME280;40174;52.364;6.452;2023-03-19T07:15:48;100992.66;;;9.11;100.00
54262;BME280;40174;52.364;6.452;2023-03-19T07:18:15;100996.75;;;9.15;100.00
54262;BME280;40174;52.364;6.452;2023-03-19T07:20:41;101000.97;;;9.18;100.00
54262;BME280;40174;52.364;6.452;2023-03-19T07:23:08;101003.50;;;9.20;100.00
54262;BME280;40174;52.364;6.452;2023-03-19T07:25:34;101002.44;;;9.22;100.00
54262;BME280;40174;52.364;6.452;2023-03-19T07:28:03;101006.56;;;9.26;100.00
54262;BME280;40174;52.364;6.452;2023-03-19T07:30:30;101011.69;;;9.28;100.00
54262;BME280;40174;52.364;6.452;2023-03-19T07:32:57;101011.50;;;9.31;100.00
54262;BME280;40174;52.364;6.452;2023-03-19T07:35:23;101014.97;;;9.31;100.00
54262;BME280;40174;52.364;6.452;2023-03-19T07:37:50;101020.88;;;9.35;100.00
54262;BME280;40174;52.364;6.452;2023-03-19T07:40:17;101017.03;;;9.39;100.00
54262;BME280;40174;52.364;6.452;2023-03-19T07:42:44;101020.41;;;9.41;100.00
54262;BME280;40174;52.364;6.452;2023-03-19T07:45:12;101027.38;;;9.42;100.00
54262;BME280;40174;52.364;6.452;2023-03-19T07:47:39;101023.56;;;9.46;100.00
54262;BME280;40174;52.364;6.452;2023-03-19T07:50:06;101024.06;;;9.51;100.00
54262;BME280;40174;52.364;6.452;2023-03-19T07:52:33;101015.19;;;9.52;100.00
54262;BME280;40174;52.364;6.452;2023-03-19T07:55:00;101020.28;;;9.55;100.00
54262;BME280;40174;52.364;6.452;2023-03-19T07:57:27;101027.84;;;9.60;100.00
54262;BME280;40174;52.364;6.452;2023-03-19T07:59:54;101021.25;;;9.66;100.00
54262;BME280;40174;52.364;6.452;2023-03-19T08:02:21;101027.16;;;9.69;100.00
54262;BME280;40174;52.364;6.452;2023-03-19T08:04:48;101035.38;;;9.77;100.00
54262;BME280;40174;52.364;6.452;2023-03-19T08:07:15;101021.84;;;9.82;100.00
54262;BME280;40174;52.364;6.452;2023-03-19T08:09:42;101026.03;;;9.85;100.00
54262;BME280;40174;52.364;6.452;2023-03-19T08:12:08;101031.72;;;9.91;100.00
54262;BME280;40174;52.364;6.452;2023-03-19T08:14:35;101031.47;;;9.94;100.00
54262;BME280;40174;52.364;6.452;2023-03-19T08:17:02;101043.03;;;10.05;100.00
54262;BME280;40174;52.364;6.452;2023-03-19T08:19:30;101043.44;;;10.11;100.00
54262;BME280;40174;52.364;6.452;2023-03-19T08:21:56;101038.28;;;10.21;100.00
54262;BME280;40174;52.364;6.452;2023-03-19T08:24:23;101051.81;;;10.29;100.00
54262;BME280;40174;52.364;6.452;2023-03-19T08:26:50;101046.75;;;10.37;100.00
54262;BME280;40174;52.364;6.452;2023-03-19T08:29:16;101063.25;;;10.41;100.00
54262;BME280;40174;52.364;6.452;2023-03-19T08:31:43;101053.50;;;10.42;100.00
54262;BME280;40174;52.364;6.452;2023-03-19T08:34:10;101058.53;;;10.45;100.00
54262;BME280;40174;52.364;6.452;2023-03-19T08:36:38;101070.09;;;10.55;100.00
54262;BME280;40174;52.364;6.452;2023-03-19T08:39:05;101074.22;;;10.70;100.00
54262;BME280;40174;52.364;6.452;2023-03-19T08:41:31;101081.19;;;10.71;100.00
54262;BME280;40174;52.364;6.452;2023-03-19T08:43:58;101076.97;;;10.69;100.00
54262;BME280;40174;52.364;6.452;2023-03-19T08:46:25;101087.44;;;10.70;100.00
54262;BME280;40174;52.364;6.452;2023-03-19T08:48:53;101089.97;;;10.72;100.00
54262;BME280;40174;52.364;6.452;2023-03-19T08:51:20;101087.56;;;10.69;100.00
54262;BME280;40174;52.364;6.452;2023-03-19T08:53:50;101089.09;;;10.71;100.00
54262;BME280;40174;52.364;6.452;2023-03-19T08:56:17;101086.59;;;10.70;100.00
54262;BME280;40174;52.364;6.452;2023-03-19T08:58:44;101095.00;;;10.75;100.00
54262;BME280;40174;52.364;6.452;2023-03-19T09:01:12;101084.19;;;10.78;100.00
54262;BME280;40174;52.364;6.452;2023-03-19T09:03:41;101102.97;;;10.86;100.00
54262;BME280;40174;52.364;6.452;2023-03-19T09:06:09;101099.25;;;10.89;100.00
54262;BME280;40174;52.364;6.452;2023-03-19T09:08:37;101099.13;;;10.90;100.00
54262;BME280;40174;52.364;6.452;2023-03-19T09:11:05;101105.16;;;10.92;100.00
54262;BME280;40174;52.364;6.452;2023-03-19T09:13:32;101108.38;;;10.96;100.00
54262;BME280;40174;52.364;6.452;2023-03-19T09:15:59;101105.88;;;11.06;100.00
54262;BME280;40174;52.364;6.452;2023-03-19T09:18:25;101111.41;;;11.14;100.00
54262;BME280;40174;52.364;6.452;2023-03-19T09:20:52;101117.75;;;11.34;100.00
54262;BME280;40174;52.364;6.452;2023-03-19T09:23:20;101110.78;;;11.44;100.00
54262;BME280;40174;52.364;6.452;2023-03-19T09:25:47;101116.56;;;11.49;100.00
54262;BME280;40174;52.364;6.452;2023-03-19T09:28:15;101121.13;;;11.58;100.00
54262;BME280;40174;52.364;6.452;2023-03-19T09:30:44;101124.13;;;11.65;100.00
54262;BME280;40174;52.364;6.452;2023-03-19T09:33:11;101120.38;;;11.68;100.00
54262;BME280;40174;52.364;6.452;2023-03-19T09:35:37;101132.41;;;11.72;100.00
54262;BME280;40174;52.364;6.452;2023-03-19T09:38:05;101135.16;;;11.70;100.00
54262;BME280;40174;52.364;6.452;2023-03-19T09:40:34;101131.69;;;11.70;100.00
54262;BME280;40174;52.364;6.452;2023-03-19T09:43:15;101148.28;;;11.72;100.00
54262;BME280;40174;52.364;6.452;2023-03-19T09:45:46;101145.75;;;11.70;100.00
54262;BME280;40174;52.364;6.452;2023-03-19T09:48:17;101151.41;;;11.77;100.00
54262;BME280;40174;52.364;6.452;2023-03-19T09:50:45;101154.91;;;11.77;100.00
54262;BME280;40174;52.364;6.452;2023-03-19T09:53:18;101151.03;;;11.81;100.00
54262;BME280;40174;52.364;6.452;2023-03-19T09:55:50;101154.06;;;11.88;100.00
54262;BME280;40174;52.364;6.452;2023-03-19T09:58:19;101152.13;;;11.90;100.00
54262;BME280;40174;52.364;6.452;2023-03-19T10:00:50;101148.88;;;11.98;100.00
54262;BME280;40174;52.364;6.452;2023-03-19T10:03:40;101160.88;;;12.13;100.00
54262;BME280;40174;52.364;6.452;2023-03-19T10:06:20;101152.31;;;12.42;100.00
54262;BME280;40174;52.364;6.452;2023-03-19T10:09:04;101156.19;;;12.70;100.00
54262;BME280;40174;52.364;6.452;2023-03-19T10:11:45;101158.56;;;12.73;100.00
54262;BME280;40174;52.364;6.452;2023-03-19T10:14:28;101159.09;;;12.67;100.00
54262;BME280;40174;52.364;6.452;2023-03-19T10:17:02;101150.09;;;12.79;100.00
54262;BME280;40174;52.364;6.452;2023-03-19T10:19:39;101155.97;;;13.04;100.00
54262;BME280;40174;52.364;6.452;2023-03-19T10:22:14;101152.13;;;13.18;100.00
54262;BME280;40174;52.364;6.452;2023-03-19T10:24:43;101154.66;;;13.19;100.00
54262;BME280;40174;52.364;6.452;2023-03-19T10:27:13;101152.25;;;13.37;100.00
54262;BME280;40174;52.364;6.452;2023-03-19T10:29:41;101157.13;;;13.32;100.00
54262;BME280;40174;52.364;6.452;2023-03-19T10:32:16;101160.84;;;13.50;100.00
54262;BME280;40174;52.364;6.452;2023-03-19T10:34:44;101154.31;;;13.74;100.00
54262;BME280;40174;52.364;6.452;2023-03-19T10:37:15;101159.69;;;13.93;100.00
54262;BME280;40174;52.364;6.452;2023-03-19T10:39:44;101168.25;;;14.17;100.00
54262;BME280;40174;52.364;6.452;2023-03-19T10:42:29;101166.88;;;14.32;100.00
54262;BME280;40174;52.364;6.452;2023-03-19T10:45:02;101179.19;;;14.33;100.00
54262;BME280;40174;52.364;6.452;2023-03-19T10:47:37;101174.00;;;14.31;100.00
54262;BME280;40174;52.364;6.452;2023-03-19T10:50:04;101178.63;;;14.39;100.00
54262;BME280;40174;52.364;6.452;2023-03-19T10:52:34;101165.88;;;14.52;100.00
54262;BME280;40174;52.364;6.452;2023-03-19T10:55:06;101175.16;;;14.78;100.00
54262;BME280;40174;52.364;6.452;2023-03-19T10:57:40;101176.53;;;14.91;100.00
54262;BME280;40174;52.364;6.452;2023-03-19T11:00:14;101175.09;;;15.07;100.00
54262;BME280;40174;52.364;6.452;2023-03-19T11:02:47;101182.34;;;15.14;100.00
54262;BME280;40174;52.364;6.452;2023-03-19T11:05:23;101175.28;;;15.33;100.00
54262;BME280;40174;52.364;6.452;2023-03-19T11:07:54;101173.25;;;15.45;100.00
54262;BME280;40174;52.364;6.452;2023-03-19T11:10:26;101182.19;;;15.63;100.00
54262;BME280;40174;52.364;6.452;2023-03-19T11:12:55;101173.19;;;15.74;100.00
54262;BME280;40174;52.364;6.452;2023-03-19T11:15:27;101175.19;;;15.90;100.00
54262;BME280;40174;52.364;6.452;2023-03-19T11:18:00;101185.72;;;16.09;100.00
54262;BME280;40174;52.364;6.452;2023-03-19T11:20:32;101174.25;;;16.27;100.00
54262;BME280;40174;52.364;6.452;2023-03-19T11:23:01;101173.09;;;16.29;100.00
54262;BME280;40174;52.364;6.452;2023-03-19T11:25:34;101180.63;;;16.52;100.00
54262;BME280;40174;52.364;6.452;2023-03-19T11:28:05;101182.56;;;16.59;100.00
54262;BME280;40174;52.364;6.452;2023-03-19T11:30:38;101175.69;;;16.57;97.70
54262;BME280;40174;52.364;6.452;2023-03-19T11:33:19;101176.44;;;16.85;100.00
54262;BME280;40174;52.364;6.452;2023-03-19T11:36:00;101184.19;;;16.96;100.00
54262;BME280;40174;52.364;6.452;2023-03-19T11:38:37;101178.34;;;16.93;98.87
54262;BME280;40174;52.364;6.452;2023-03-19T11:41:11;101186.78;;;16.70;95.01
54262;BME280;40174;52.364;6.452;2023-03-19T11:43:49;101175.75;;;16.47;94.81
54262;BME280;40174;52.364;6.452;2023-03-19T11:46:35;101177.97;;;16.16;97.89
54262;BME280;40174;52.364;6.452;2023-03-19T11:49:35;101174.00;;;16.02;99.38
54262;BME280;40174;52.364;6.452;2023-03-19T11:52:11;101180.59;;;15.98;100.00
54262;BME280;40174;52.364;6.452;2023-03-19T11:54:52;101175.09;;;15.82;98.29
54262;BME280;40174;52.364;6.452;2023-03-19T11:57:35;101179.97;;;15.58;98.25
54262;BME280;40174;52.364;6.452;2023-03-19T12:00:15;101174.00;;;15.37;99.72
54262;BME280;40174;52.364;6.452;2023-03-19T12:03:15;101181.59;;;15.32;100.00
54262;BME280;40174;52.364;6.452;2023-03-19T12:05:54;101184.97;;;15.24;100.00
54262;BME280;40174;52.364;6.452;2023-03-19T12:08:31;101180.34;;;15.26;100.00
54262;BME280;40174;52.364;6.452;2023-03-19T12:11:11;101178.75;;;15.43;100.00
54262;BME280;40174;52.364;6.452;2023-03-19T12:13:53;101172.09;;;15.57;99.78
54262;BME280;40174;52.364;6.452;2023-03-19T12:16:30;101178.72;;;16.08;100.00
54262;BME280;40174;52.364;6.452;2023-03-19T12:19:13;101175.28;;;16.52;98.26
54262;BME280;40174;52.364;6.452;2023-03-19T12:22:11;101174.66;;;16.76;93.15
54262;BME280;40174;52.364;6.452;2023-03-19T12:24:56;101173.81;;;16.93;96.88
54262;BME280;40174;52.364;6.452;2023-03-19T12:27:31;101173.00;;;16.93;94.97
54262;BME280;40174;52.364;6.452;2023-03-19T12:30:03;101183.69;;;16.75;92.28
54262;BME280;40174;52.364;6.452;2023-03-19T12:32:54;101179.88;;;16.59;95.22
54262;BME280;40174;52.364;6.452;2023-03-19T12:35:30;101180.53;;;16.97;97.67
54262;BME280;40174;52.364;6.452;2023-03-19T12:38:02;101174.94;;;17.43;96.12
54262;BME280;40174;52.364;6.452;2023-03-19T12:40:34;101173.91;;;17.70;87.25
54262;BME280;40174;52.364;6.452;2023-03-19T12:43:05;101177.44;;;17.79;89.04
54262;BME280;40174;52.364;6.452;2023-03-19T12:45:34;101178.59;;;17.76;89.29
54262;BME280;40174;52.364;6.452;2023-03-19T12:48:05;101180.78;;;17.81;83.95
54262;BME280;40174;52.364;6.452;2023-03-19T12:50:36;101179.72;;;18.08;87.80
54262;BME280;40174;52.364;6.452;2023-03-19T12:53:09;101183.09;;;18.18;86.83
54262;BME280;40174;52.364;6.452;2023-03-19T12:55:41;101174.91;;;18.12;87.88
54262;BME280;40174;52.364;6.452;2023-03-19T12:58:15;101179.44;;;18.44;87.15
54262;BME280;40174;52.364;6.452;2023-03-19T13:00:48;101180.28;;;18.53;81.69
54262;BME280;40174;52.364;6.452;2023-03-19T13:03:21;101174.94;;;18.53;78.20
54262;BME280;40174;52.364;6.452;2023-03-19T13:05:56;101183.09;;;18.43;79.50
54262;BME280;40174;52.364;6.452;2023-03-19T13:08:29;101174.88;;;18.20;78.87
54262;BME280;40174;52.364;6.452;2023-03-19T13:10:59;101181.03;;;18.04;77.17